Time;durP1;ratioP1;P1;durP2;ratioP2;P2;SDS_P1;SDS_P2;PMS_P1;PMS_P2;Temp;Humidity;BMP_temperature;BMP_pressure;BME280_temperature;BME280_humidity;BME280_pressure;Samples;Min_cycle;Max_cycle;Signal;HPM_P1;HPM_P2
2022/12/03 00:00:56;;;;;;;35.85;13.07;;;3.40;99.90;;;;;;5053515;28;20044;-66
2022/12/03 00:03:22;;;;;;;35.42;13.18;;;3.40;99.90;;;;;;5053722;28;20041;-67
2022/12/03 00:05:49;;;;;;;32.38;12.15;;;3.40;99.90;;;;;;5052611;28;20059;-65
2022/12/03 00:08:14;;;;;;;34.92;12.60;;;3.50;99.90;;;;;;5053640;28;20132;-67
2022/12/03 00:10:40;;;;;;;31.95;12.30;;;3.50;99.90;;;;;;5053390;28;20090;-66
2022/12/03 00:13:05;;;;;;;32.10;12.40;;;3.50;99.90;;;;;;5053329;28;20577;-66
2022/12/03 00:15:31;;;;;;;33.13;12.65;;;3.50;99.90;;;;;;5034335;28;20045;-66
2022/12/03 00:17:56;;;;;;;33.25;11.77;;;3.50;99.90;;;;;;5053177;28;20044;-67
2022/12/03 00:20:23;;;;;;;30.02;12.88;;;3.50;99.90;;;;;;5053407;28;20059;-65
2022/12/03 00:22:49;;;;;;;31.45;11.95;;;3.40;99.90;;;;;;5053023;28;20085;-66
2022/12/03 00:25:15;;;;;;;30.70;12.57;;;3.40;99.90;;;;;;5052131;28;20053;-66
2022/12/03 00:27:40;;;;;;;31.60;12.32;;;3.40;99.90;;;;;;5053138;28;20072;-66
2022/12/03 00:30:07;;;;;;;30.80;12.43;;;3.40;99.90;;;;;;5053280;28;20511;-65
2022/12/03 00:32:32;;;;;;;32.38;13.63;;;3.40;99.90;;;;;;5053048;28;20395;-66
2022/12/03 00:34:58;;;;;;;33.10;12.85;;;3.40;99.90;;;;;;5049529;28;20053;-67
2022/12/03 00:37:24;;;;;;;35.20;13.00;;;3.40;99.90;;;;;;5068087;28;20538;-67
2022/12/03 00:39:49;;;;;;;32.35;12.32;;;3.40;99.90;;;;;;5072721;28;20036;-67
2022/12/03 00:42:15;;;;;;;35.40;13.93;;;3.40;99.90;;;;;;5073115;28;20044;-65
2022/12/03 00:44:40;;;;;;;31.40;12.93;;;3.40;99.90;;;;;;5070905;28;20056;-66
2022/12/03 00:47:06;;;;;;;30.00;12.45;;;3.50;99.90;;;;;;5072779;28;20041;-67
2022/12/03 00:49:32;;;;;;;34.17;13.13;;;3.50;99.90;;;;;;5072649;28;20043;-66
2022/12/03 00:51:57;;;;;;;34.97;13.18;;;3.50;99.90;;;;;;5072910;28;20048;-68
2022/12/03 00:54:23;;;;;;;33.40;12.55;;;3.50;99.90;;;;;;5071936;28;20555;-66
2022/12/03 00:56:48;;;;;;;30.23;11.57;;;3.50;99.90;;;;;;5072476;28;20401;-67
2022/12/03 00:59:14;;;;;;;33.25;13.65;;;3.50;99.90;;;;;;5072437;28;20040;-67
2022/12/03 01:01:39;;;;;;;34.85;13.73;;;3.50;99.90;;;;;;5072466;28;20037;-66
2022/12/03 01:04:05;;;;;;;32.30;12.50;;;3.50;99.90;;;;;;5071831;28;20091;-66
2022/12/03 01:06:30;;;;;;;32.35;13.52;;;3.50;99.90;;;;;;5071469;28;20075;-66
2022/12/03 01:08:56;;;;;;;27.52;12.43;;;3.50;99.90;;;;;;5072428;28;20078;-67
2022/12/03 01:11:37;;;;;;;35.58;12.82;;;3.50;99.90;;;;;;5072127;28;20032;-66
2022/12/03 01:14:10;;;;;;;30.60;11.27;;;3.60;99.90;;;;;;5071345;28;20477;-66
2022/12/03 01:16:36;;;;;;;34.65;14.15;;;3.60;99.90;;;;;;5071940;28;20040;-67
2022/12/03 01:19:02;;;;;;;35.22;12.90;;;3.60;99.90;;;;;;5072333;28;20131;-66
2022/12/03 01:21:28;;;;;;;33.38;12.85;;;3.60;99.90;;;;;;5071766;28;20036;-67
2022/12/03 01:23:53;;;;;;;27.63;12.25;;;3.60;99.90;;;;;;5071306;28;20047;-66
2022/12/03 01:26:19;;;;;;;37.78;12.68;;;3.60;99.90;;;;;;5072049;28;20037;-66
2022/12/03 01:28:44;;;;;;;39.55;14.25;;;3.60;99.90;;;;;;5053707;28;20040;-67
2022/12/03 01:33:54;;;;;;;33.88;13.57;;;3.60;99.90;;;;;;5071071;28;20063;-67
2022/12/03 01:36:20;;;;;;;36.58;13.55;;;3.60;99.90;;;;;;5071565;28;20406;-66
2022/12/03 01:38:47;;;;;;;35.78;12.95;;;3.60;99.90;;;;;;5071718;28;20044;-67
2022/12/03 01:41:13;;;;;;;36.05;14.02;;;3.70;99.90;;;;;;5071601;28;20040;-67
2022/12/03 01:43:39;;;;;;;35.28;13.35;;;3.60;99.90;;;;;;5071439;28;20040;-68
2022/12/03 01:46:05;;;;;;;30.33;13.00;;;3.60;99.90;;;;;;5069733;28;20512;-67
2022/12/03 01:48:34;;;;;;;37.05;14.20;;;3.60;99.90;;;;;;5071343;28;20033;-66
2022/12/03 01:51:00;;;;;;;33.75;12.65;;;3.70;99.90;;;;;;5071621;28;20040;-66
2022/12/03 01:53:25;;;;;;;35.90;13.50;;;3.70;99.90;;;;;;5053289;28;20520;-67
2022/12/03 01:55:51;;;;;;;36.55;12.93;;;3.70;99.90;;;;;;5068873;28;20044;-67
2022/12/03 01:58:27;;;;;;;34.00;13.57;;;3.70;99.90;;;;;;5071178;28;20044;-67
2022/12/03 02:00:52;;;;;;;30.75;12.38;;;3.70;99.90;;;;;;5070863;28;20636;-66
2022/12/03 02:03:22;;;;;;;31.75;13.10;;;3.70;99.90;;;;;;5071110;28;20049;-66
2022/12/03 02:05:47;;;;;;;31.50;13.75;;;3.70;99.90;;;;;;5070019;28;20055;-66
2022/12/03 02:08:26;;;;;;;32.25;13.50;;;3.70;99.90;;;;;;5071007;28;20400;-66
2022/12/03 02:10:52;;;;;;;31.50;13.27;;;3.70;99.90;;;;;;5051052;28;20045;-66
2022/12/03 02:13:18;;;;;;;32.40;13.38;;;3.70;99.90;;;;;;5050991;28;20051;-67
2022/12/03 02:15:44;;;;;;;31.05;12.73;;;3.70;99.90;;;;;;5050054;28;20028;-65
2022/12/03 02:18:09;;;;;;;34.95;13.13;;;3.70;99.90;;;;;;5050494;28;20091;-67
2022/12/03 02:21:01;;;;;;;28.42;13.30;;;3.70;99.90;;;;;;5050789;28;20048;-66
2022/12/03 02:23:50;;;;;;;33.67;13.23;;;3.70;99.90;;;;;;5050615;28;20133;-67
2022/12/03 02:26:16;;;;;;;28.75;12.02;;;3.70;99.90;;;;;;5050940;28;20049;-66
2022/12/03 02:28:42;;;;;;;26.77;13.05;;;3.60;99.90;;;;;;5051071;28;20043;-67
2022/12/03 02:31:07;;;;;;;27.15;12.50;;;3.70;99.90;;;;;;5051117;28;20490;-67
2022/12/03 02:33:34;;;;;;;27.02;13.68;;;3.70;99.90;;;;;;5050791;28;20076;-66
2022/12/03 02:35:59;;;;;;;25.50;11.68;;;3.80;99.90;;;;;;5049003;28;20529;-67
2022/12/03 02:38:28;;;;;;;32.53;12.02;;;3.70;99.90;;;;;;5050962;28;20041;-66
2022/12/03 02:40:57;;;;;;;29.30;12.10;;;3.70;99.90;;;;;;5050992;28;20037;-66
2022/12/03 02:43:24;;;;;;;29.40;11.88;;;3.70;99.90;;;;;;5050564;28;20045;-65
2022/12/03 02:45:53;;;;;;;29.33;12.38;;;3.70;99.90;;;;;;5049829;28;20044;-66
2022/12/03 02:48:27;;;;;;;28.17;11.43;;;3.70;99.90;;;;;;5050688;28;20045;-66
2022/12/03 02:50:55;;;;;;;28.52;12.02;;;3.70;99.90;;;;;;5051018;28;20068;-66
2022/12/03 02:53:31;;;;;;;28.05;12.35;;;3.70;99.90;;;;;;5050472;28;20413;-66
2022/12/03 02:55:59;;;;;;;27.55;12.75;;;3.70;99.90;;;;;;5049797;28;20037;-65
2022/12/03 02:58:27;;;;;;;27.20;11.38;;;3.60;99.90;;;;;;5050812;28;20692;-66
2022/12/03 03:00:54;;;;;;;30.98;13.20;;;3.70;99.90;;;;;;5050601;28;20072;-66
2022/12/03 03:03:20;;;;;;;32.90;12.30;;;3.70;99.90;;;;;;5050879;28;20033;-66
2022/12/03 03:05:48;;;;;;;27.60;11.45;;;3.70;99.90;;;;;;5049104;28;20041;-66
2022/12/03 03:08:13;;;;;;;27.85;13.27;;;3.60;99.90;;;;;;5050825;28;20071;-66
2022/12/03 03:10:40;;;;;;;30.67;13.00;;;3.70;99.90;;;;;;5050573;28;20032;-66
2022/12/03 03:13:10;;;;;;;27.48;11.75;;;3.70;99.90;;;;;;5050472;28;20103;-66
2022/12/03 03:15:39;;;;;;;27.42;12.20;;;3.70;99.90;;;;;;5049581;28;20037;-66
2022/12/03 03:18:07;;;;;;;28.08;13.15;;;3.60;99.90;;;;;;5050579;28;20041;-66
2022/12/03 03:20:33;;;;;;;25.77;11.02;;;3.60;99.90;;;;;;5050279;28;20405;-65
2022/12/03 03:23:25;;;;;;;27.98;13.85;;;3.60;99.90;;;;;;5050328;28;20041;-66
2022/12/03 03:26:01;;;;;;;29.15;12.73;;;3.60;99.90;;;;;;5049089;28;20048;-66
2022/12/03 03:28:28;;;;;;;30.55;13.15;;;3.70;99.90;;;;;;5050407;28;20044;-66
2022/12/03 03:30:55;;;;;;;30.30;13.23;;;3.70;99.90;;;;;;5052936;28;20045;-65
2022/12/03 03:33:21;;;;;;;30.40;13.68;;;3.70;99.90;;;;;;5053633;28;20095;-67
2022/12/03 03:35:48;;;;;;;26.95;12.85;;;3.70;99.90;;;;;;5053179;28;20068;-65
2022/12/03 03:38:14;;;;;;;34.13;13.82;;;3.70;99.90;;;;;;5053939;28;20029;-67
2022/12/03 03:40:40;;;;;;;30.30;14.32;;;3.70;99.90;;;;;;5054128;28;20083;-66
2022/12/03 03:43:06;;;;;;;33.40;14.30;;;3.80;99.90;;;;;;5053853;28;20072;-66
2022/12/03 03:45:32;;;;;;;37.50;14.05;;;3.70;99.90;;;;;;5053053;28;20569;-66
2022/12/03 03:48:00;;;;;;;31.50;14.18;;;3.70;99.90;;;;;;5053915;28;20041;-67
2022/12/03 03:50:30;;;;;;;35.55;14.43;;;3.80;99.90;;;;;;5053910;28;20068;-65
2022/12/03 03:52:56;;;;;;;33.58;13.57;;;3.70;99.90;;;;;;5053657;28;20049;-66
2022/12/03 03:55:23;;;;;;;28.80;13.13;;;3.70;99.90;;;;;;5052960;28;20374;-65
2022/12/03 03:57:48;;;;;;;30.13;14.02;;;3.70;99.90;;;;;;5053549;28;20039;-66
2022/12/03 04:00:15;;;;;;;32.10;14.02;;;3.70;99.90;;;;;;5053300;28;20033;-66
2022/12/03 04:02:42;;;;;;;31.15;12.90;;;3.70;99.90;;;;;;5053749;28;20106;-65
2022/12/03 04:05:15;;;;;;;31.73;12.68;;;3.60;99.90;;;;;;5052426;28;20076;-67
2022/12/03 04:07:40;;;;;;;26.05;12.55;;;3.60;99.90;;;;;;5053494;28;20040;-65
2022/12/03 04:12:54;;;;;;;31.30;14.65;;;3.70;99.90;;;;;;5053471;28;20444;-66
2022/12/03 04:12:55;;;;;;;32.40;13.25;;;3.70;99.90;;;;;;5053121;28;20057;-67
2022/12/03 04:15:20;;;;;;;32.03;14.43;;;3.70;99.90;;;;;;5058815;28;20040;-66
2022/12/03 04:18:41;;;;;;;29.23;13.60;;;3.60;99.90;;;;;;5073486;28;20044;-66
2022/12/03 04:20:32;;;;;;;31.50;13.13;;;3.60;99.90;;;;;;5072951;28;20688;-65
2022/12/03 04:22:57;;;;;;;30.42;13.52;;;3.60;99.90;;;;;;5073105;28;20040;-66
2022/12/03 04:30:52;;;;;;;33.17;13.55;;;3.60;99.90;;;;;;5073362;28;20045;-66
2022/12/03 04:36:02;;;;;;;32.35;13.15;;;3.60;99.90;;;;;;5070686;28;20041;-66
2022/12/03 04:38:27;;;;;;;29.75;13.00;;;3.60;99.90;;;;;;5072727;28;20115;-66
2022/12/03 04:41:05;;;;;;;33.97;12.32;;;3.60;99.90;;;;;;5072459;28;20035;-66
2022/12/03 04:43:33;;;;;;;27.35;13.27;;;3.50;99.90;;;;;;5072498;28;20198;-66
2022/12/03 04:45:59;;;;;;;24.98;13.45;;;3.60;99.90;;;;;;5071968;28;20036;-66
2022/12/03 04:48:25;;;;;;;27.67;13.48;;;3.60;99.90;;;;;;5072689;28;20040;-67
2022/12/03 04:50:51;;;;;;;33.13;12.57;;;3.60;99.90;;;;;;5072845;28;20040;-65
2022/12/03 04:53:16;;;;;;;25.52;12.15;;;3.60;99.90;;;;;;5072495;28;20036;-66
2022/12/03 04:55:42;;;;;;;27.45;11.85;;;3.50;99.90;;;;;;5071665;28;20086;-65
2022/12/03 04:58:08;;;;;;;33.70;13.32;;;3.50;99.90;;;;;;5072393;28;20115;-66
2022/12/03 05:00:34;;;;;;;33.22;14.60;;;3.50;99.90;;;;;;5072566;28;20036;-66
2022/12/03 05:03:00;;;;;;;30.70;13.65;;;3.50;99.90;;;;;;5072583;28;20037;-66
2022/12/03 05:05:25;;;;;;;27.75;13.23;;;3.60;99.90;;;;;;5071244;28;20109;-66
2022/12/03 05:07:51;;;;;;;27.95;13.00;;;3.50;99.90;;;;;;5072320;28;20072;-67
2022/12/03 05:10:16;;;;;;;32.38;13.90;;;3.50;99.90;;;;;;5072172;28;20037;-65
2022/12/03 05:12:42;;;;;;;30.08;12.20;;;3.50;99.90;;;;;;5072126;28;20429;-66
2022/12/03 05:15:08;;;;;;;29.17;12.85;;;3.50;99.90;;;;;;5071452;28;20044;-66
2022/12/03 05:17:33;;;;;;;30.70;12.57;;;3.50;99.90;;;;;;5072213;28;20036;-67
2022/12/03 05:22:43;;;;;;;30.98;13.10;;;3.50;99.90;;;;;;5071954;28;20045;-66
2022/12/03 05:25:09;;;;;;;28.10;12.15;;;3.40;99.90;;;;;;5070966;28;20037;-65
2022/12/03 05:27:34;;;;;;;38.40;14.27;;;3.40;99.90;;;;;;5071759;28;20117;-66
2022/12/03 05:30:00;;;;;;;33.78;12.05;;;3.40;99.90;;;;;;5072120;28;20481;-66
2022/12/03 05:32:26;;;;;;;29.42;13.65;;;3.50;99.90;;;;;;5071507;28;20499;-66
2022/12/03 05:34:51;;;;;;;30.38;12.52;;;3.40;99.90;;;;;;5070966;28;20041;-67
2022/12/03 05:37:17;;;;;;;32.85;13.73;;;3.40;99.90;;;;;;5071772;28;20538;-66
2022/12/03 05:39:42;;;;;;;32.35;13.50;;;3.40;99.90;;;;;;5071600;28;20033;-66
2022/12/03 05:44:52;;;;;;;27.08;12.55;;;3.40;99.90;;;;;;5071037;28;20048;-66
2022/12/03 05:47:18;;;;;;;35.15;14.70;;;3.40;99.90;;;;;;5071469;28;20116;-66
2022/12/03 05:49:44;;;;;;;31.30;13.98;;;3.30;99.90;;;;;;5071399;28;20045;-67
2022/12/03 05:52:09;;;;;;;33.55;15.10;;;3.40;99.90;;;;;;5071341;28;20051;-65
2022/12/03 05:54:35;;;;;;;30.88;13.45;;;3.40;99.90;;;;;;5070245;28;20040;-66
2022/12/03 05:57:00;;;;;;;33.25;13.70;;;3.40;99.90;;;;;;5071421;28;20554;-66
2022/12/03 05:59:26;;;;;;;37.28;14.45;;;3.40;99.90;;;;;;5071067;28;20123;-67
2022/12/03 06:01:51;;;;;;;29.40;13.25;;;3.40;99.90;;;;;;5071429;28;20052;-65
2022/12/03 06:04:17;;;;;;;33.17;14.18;;;3.40;99.90;;;;;;5070483;28;20063;-66
2022/12/03 06:06:43;;;;;;;35.70;13.75;;;3.40;99.90;;;;;;5071503;28;20032;-67
2022/12/03 06:09:08;;;;;;;30.23;13.75;;;3.40;99.90;;;;;;5071042;28;20102;-67
2022/12/03 06:11:35;;;;;;;29.38;12.70;;;3.40;99.90;;;;;;5071257;28;20037;-65
2022/12/03 06:14:02;;;;;;;35.58;15.13;;;3.40;99.90;;;;;;5070617;28;20123;-66
2022/12/03 06:16:28;;;;;;;31.33;14.23;;;3.30;99.90;;;;;;5070926;28;20079;-65
2022/12/03 06:18:53;;;;;;;41.15;16.05;;;3.30;99.90;;;;;;5071488;28;20472;-66
2022/12/03 06:21:19;;;;;;;34.78;13.63;;;3.30;99.90;;;;;;5070936;28;20485;-66
2022/12/03 06:23:44;;;;;;;37.05;15.30;;;3.20;99.90;;;;;;5070253;28;20114;-67
2022/12/03 06:26:11;;;;;;;35.22;14.98;;;3.30;99.90;;;;;;5070732;28;20342;-65
2022/12/03 06:28:36;;;;;;;31.98;14.48;;;3.30;99.90;;;;;;5070996;28;20036;-67
2022/12/03 06:31:02;;;;;;;40.95;16.15;;;3.20;99.90;;;;;;5070803;28;20085;-65
2022/12/03 06:33:28;;;;;;;39.15;16.48;;;3.20;99.90;;;;;;5069500;28;20036;-66
2022/12/03 06:35:53;;;;;;;37.10;17.00;;;3.20;99.90;;;;;;5070124;28;20116;-65
2022/12/03 06:38:19;;;;;;;44.17;17.92;;;3.30;99.90;;;;;;5070618;28;20102;-66
2022/12/03 06:40:44;;;;;;;36.58;17.02;;;3.10;99.90;;;;;;5071011;28;20138;-67
2022/12/03 06:43:10;;;;;;;39.80;16.60;;;3.10;99.90;;;;;;5069350;28;20052;-66
2022/12/03 06:45:35;;;;;;;44.55;16.83;;;3.10;99.90;;;;;;5070245;28;20072;-66
2022/12/03 06:48:01;;;;;;;41.13;17.00;;;3.10;99.90;;;;;;5070758;28;20048;-66
2022/12/03 06:50:27;;;;;;;41.78;18.38;;;3.10;99.90;;;;;;5070954;28;20043;-67
2022/12/03 06:52:52;;;;;;;46.35;16.90;;;3.10;99.90;;;;;;5070438;28;20039;-66
2022/12/03 06:55:18;;;;;;;41.25;16.80;;;3.10;99.90;;;;;;5069688;28;20037;-66
2022/12/03 06:57:43;;;;;;;39.35;16.95;;;3.00;99.90;;;;;;5070818;28;20033;-67
2022/12/03 07:00:09;;;;;;;46.15;17.25;;;3.00;99.90;;;;;;5070442;28;20031;-67
2022/12/03 07:02:35;;;;;;;38.17;15.98;;;3.10;99.90;;;;;;5070879;28;20072;-67
2022/12/03 07:05:01;;;;;;;40.55;18.30;;;3.00;99.90;;;;;;5071085;28;20096;-67
2022/12/03 07:07:26;;;;;;;43.72;17.95;;;3.00;99.90;;;;;;5056208;28;20564;-66
2022/12/03 07:09:52;;;;;;;45.50;18.00;;;3.00;99.90;;;;;;5074655;28;20067;-66
2022/12/03 07:12:18;;;;;;;41.38;17.83;;;3.00;99.90;;;;;;5074517;28;20500;-66
2022/12/03 07:14:43;;;;;;;36.55;16.35;;;3.00;99.90;;;;;;5073733;28;20652;-67
2022/12/03 07:17:09;;;;;;;35.90;15.68;;;2.90;99.90;;;;;;5074226;28;20033;-66
2022/12/03 07:19:34;;;;;;;38.97;16.05;;;2.90;99.90;;;;;;5074298;28;20037;-66
2022/12/03 07:22:00;;;;;;;41.28;16.80;;;2.90;99.90;;;;;;5074342;28;20040;-66
2022/12/03 07:24:25;;;;;;;38.15;14.73;;;2.90;99.90;;;;;;5073665;28;20040;-67
2022/12/03 07:26:51;;;;;;;38.58;15.60;;;2.80;99.90;;;;;;5074159;28;20055;-66
2022/12/03 07:29:16;;;;;;;39.42;16.50;;;2.70;99.90;;;;;;5074261;28;20558;-67
2022/12/03 07:31:42;;;;;;;41.33;16.20;;;2.80;99.90;;;;;;5074399;28;20051;-67
2022/12/03 07:34:08;;;;;;;40.25;17.10;;;2.70;99.90;;;;;;5073651;28;20068;-68
2022/12/03 07:36:33;;;;;;;40.65;16.08;;;2.80;99.90;;;;;;5074137;28;20094;-67
2022/12/03 07:38:59;;;;;;;46.42;17.00;;;2.70;99.90;;;;;;5074172;28;20115;-66
2022/12/03 07:41:24;;;;;;;38.10;15.98;;;2.70;99.90;;;;;;5074086;28;20059;-67
2022/12/03 07:43:50;;;;;;;35.88;16.90;;;2.80;99.90;;;;;;5073074;28;20072;-67
2022/12/03 07:46:16;;;;;;;45.47;17.70;;;2.70;99.90;;;;;;5065643;28;20124;-67
2022/12/03 07:48:41;;;;;;;41.95;16.65;;;2.70;99.90;;;;;;5066544;28;20086;-67
2022/12/03 07:51:07;;;;;;;39.38;16.80;;;2.70;99.90;;;;;;5074014;28;20040;-66
2022/12/03 07:53:34;;;;;;;44.42;16.17;;;2.70;99.90;;;;;;5070153;28;20036;-67
2022/12/03 07:56:01;;;;;;;43.55;17.55;;;2.70;99.90;;;;;;5066310;28;20036;-68
2022/12/03 07:58:26;;;;;;;45.10;17.02;;;2.70;99.90;;;;;;5073610;28;20040;-66
2022/12/03 08:00:52;;;;;;;44.53;16.42;;;2.60;99.90;;;;;;5071916;28;20554;-67
2022/12/03 08:03:18;;;;;;;39.28;16.75;;;2.70;99.90;;;;;;5073524;28;20051;-66
2022/12/03 08:05:43;;;;;;;44.05;16.77;;;2.70;99.90;;;;;;5071399;28;20037;-66
2022/12/03 08:08:09;;;;;;;40.88;17.15;;;2.80;99.90;;;;;;5072490;28;20040;-67
2022/12/03 08:10:34;;;;;;;41.03;15.98;;;2.80;99.90;;;;;;5073428;28;20406;-68
2022/12/03 08:13:03;;;;;;;40.05;16.92;;;2.70;99.90;;;;;;5073203;28;20044;-66
2022/12/03 08:15:29;;;;;;;41.25;16.42;;;2.60;99.90;;;;;;5072412;28;20046;-66
2022/12/03 08:17:57;;;;;;;35.28;15.40;;;2.60;99.90;;;;;;5072408;28;20036;-67
2022/12/03 08:20:26;;;;;;;43.47;17.15;;;2.50;99.90;;;;;;5073033;28;20036;-66
2022/12/03 08:22:53;;;;;;;39.53;16.48;;;2.60;99.90;;;;;;5073315;28;20036;-67
2022/12/03 08:25:30;;;;;;;43.22;15.88;;;2.40;99.90;;;;;;5072316;28;20044;-67
2022/12/03 08:28:06;;;;;;;45.75;16.60;;;2.50;99.90;;;;;;5073420;28;20044;-66
2022/12/03 08:30:31;;;;;;;43.40;16.63;;;2.40;99.90;;;;;;5073236;28;20087;-67
2022/12/03 08:32:58;;;;;;;41.45;15.65;;;2.50;99.90;;;;;;5072774;28;20080;-67
2022/12/03 08:35:29;;;;;;;38.47;16.00;;;2.50;99.90;;;;;;5072216;28;20086;-67
2022/12/03 08:38:10;;;;;;;42.28;15.65;;;2.40;99.90;;;;;;5072812;28;20037;-66
2022/12/03 08:40:39;;;;;;;43.80;15.10;;;2.40;99.90;;;;;;5072823;28;20047;-66
2022/12/03 08:43:26;;;;;;;39.28;14.18;;;2.30;99.90;;;;;;5072609;28;20048;-66
2022/12/03 08:45:54;;;;;;;40.20;15.75;;;2.30;99.90;;;;;;5071836;28;20124;-66
2022/12/03 08:48:33;;;;;;;40.22;16.65;;;2.30;99.90;;;;;;5072837;28;20093;-67
2022/12/03 08:51:19;;;;;;;37.45;14.25;;;2.30;99.90;;;;;;5072672;28;20051;-66
2022/12/03 08:53:56;;;;;;;42.88;16.52;;;2.30;99.90;;;;;;5071754;28;20475;-68
2022/12/03 08:56:27;;;;;;;39.08;14.77;;;2.30;99.90;;;;;;5067501;28;20044;-66
2022/12/03 08:58:55;;;;;;;42.28;16.58;;;2.30;99.90;;;;;;5058647;28;20041;-66
2022/12/03 09:01:28;;;;;;;40.22;15.98;;;2.40;99.90;;;;;;5059777;28;20036;-66
2022/12/03 09:03:57;;;;;;;44.22;16.70;;;2.40;99.90;;;;;;5059360;28;20076;-66
2022/12/03 09:06:23;;;;;;;38.53;14.98;;;2.30;99.90;;;;;;5056654;28;20777;-67
2022/12/03 09:08:48;;;;;;;37.15;16.35;;;2.40;99.90;;;;;;5052642;28;20103;-67
2022/12/03 09:11:15;;;;;;;40.88;16.05;;;2.40;99.90;;;;;;5052318;28;20405;-66
2022/12/03 09:13:40;;;;;;;50.13;17.15;;;2.60;99.90;;;;;;5051802;28;20110;-68
2022/12/03 09:16:06;;;;;;;39.85;16.10;;;2.50;99.90;;;;;;5051534;28;20453;-67
2022/12/03 09:18:32;;;;;;;39.30;16.50;;;2.50;99.90;;;;;;5052208;28;20052;-67
2022/12/03 09:20:58;;;;;;;39.97;16.58;;;2.50;99.90;;;;;;5052247;28;20048;-67
2022/12/03 09:23:23;;;;;;;40.63;16.67;;;2.40;99.90;;;;;;5052322;28;20497;-67
2022/12/03 09:25:49;;;;;;;39.92;16.85;;;2.40;99.90;;;;;;5049766;28;20485;-67
2022/12/03 09:28:14;;;;;;;49.55;16.33;;;2.30;99.90;;;;;;5050269;28;20461;-68
2022/12/03 09:30:40;;;;;;;40.60;16.50;;;2.50;99.90;;;;;;5051903;28;20402;-67
2022/12/03 09:33:06;;;;;;;40.00;16.80;;;2.40;99.90;;;;;;5052017;28;20497;-67
2022/12/03 09:35:31;;;;;;;42.05;15.55;;;2.20;99.90;;;;;;5050729;28;20047;-66
2022/12/03 09:37:57;;;;;;;44.50;17.85;;;2.30;99.90;;;;;;5051786;28;20076;-67
2022/12/03 09:40:23;;;;;;;43.75;17.00;;;2.10;99.90;;;;;;5051784;28;20048;-67
2022/12/03 09:42:50;;;;;;;42.20;17.08;;;2.20;99.90;;;;;;5051772;28;20044;-67
2022/12/03 09:45:16;;;;;;;43.05;15.43;;;2.10;99.90;;;;;;5050982;28;20394;-66
2022/12/03 09:47:45;;;;;;;41.08;17.40;;;2.10;99.90;;;;;;5051561;28;20048;-67
2022/12/03 09:50:18;;;;;;;41.35;16.15;;;2.10;99.90;;;;;;5051438;28;20620;-66
2022/12/03 09:52:45;;;;;;;51.20;18.83;;;2.10;99.90;;;;;;5051540;28;20041;-67
2022/12/03 09:55:19;;;;;;;51.95;19.52;;;2.30;99.90;;;;;;5050899;28;20167;-67
2022/12/03 09:57:45;;;;;;;42.45;17.33;;;2.30;99.90;;;;;;5051337;28;20049;-67
2022/12/03 10:00:23;;;;;;;42.55;16.95;;;2.30;99.90;;;;;;5049859;28;20459;-68
2022/12/03 10:02:50;;;;;;;45.25;17.00;;;2.30;99.90;;;;;;5051345;28;20041;-67
2022/12/03 10:05:18;;;;;;;46.47;17.95;;;2.30;99.90;;;;;;5050529;28;20055;-67
2022/12/03 10:07:44;;;;;;;50.85;17.33;;;2.30;99.90;;;;;;5051311;28;20048;-67
2022/12/03 10:10:23;;;;;;;47.53;17.70;;;2.30;99.90;;;;;;5051271;28;20045;-67
2022/12/03 10:12:50;;;;;;;47.60;17.77;;;2.30;99.90;;;;;;5050818;28;20489;-68
2022/12/03 10:15:18;;;;;;;44.05;17.20;;;2.30;99.90;;;;;;5050320;28;20041;-67
2022/12/03 10:17:49;;;;;;;48.60;18.55;;;2.40;99.90;;;;;;5051148;28;20049;-67
2022/12/03 10:20:17;;;;;;;51.97;18.33;;;2.40;99.90;;;;;;5051002;28;20083;-65
2022/12/03 10:22:42;;;;;;;40.83;17.42;;;2.50;99.90;;;;;;5051076;28;20041;-67
2022/12/03 10:25:11;;;;;;;41.53;17.10;;;2.50;99.90;;;;;;5050054;28;20041;-66
2022/12/03 10:27:37;;;;;;;47.65;17.70;;;2.50;99.90;;;;;;5051152;28;20502;-66
2022/12/03 10:30:16;;;;;;;43.67;17.50;;;2.50;99.90;;;;;;5051058;28;20037;-66
2022/12/03 10:32:43;;;;;;;46.42;17.30;;;2.50;99.90;;;;;;5050871;28;20132;-67
2022/12/03 10:35:17;;;;;;;39.60;15.50;;;2.50;99.90;;;;;;5049987;28;20049;-66
2022/12/03 10:38:15;;;;;;;44.67;17.88;;;2.70;99.90;;;;;;5051084;28;20044;-66
2022/12/03 10:40:40;;;;;;;46.60;17.10;;;2.50;99.90;;;;;;5045739;28;20053;-66
2022/12/03 10:43:18;;;;;;;42.05;16.50;;;2.50;99.90;;;;;;5050989;28;20541;-67
2022/12/03 10:45:49;;;;;;;40.25;15.43;;;2.50;99.90;;;;;;5049751;28;20041;-67
2022/12/03 10:48:14;;;;;;;43.75;16.38;;;2.50;99.90;;;;;;5049367;28;20060;-67
2022/12/03 10:50:46;;;;;;;49.30;17.65;;;2.50;99.90;;;;;;5050806;28;20425;-66
2022/12/03 10:53:11;;;;;;;45.88;16.48;;;2.50;99.90;;;;;;5050891;28;20041;-66
2022/12/03 10:55:40;;;;;;;48.03;17.25;;;2.50;99.90;;;;;;5049771;28;20490;-67
2022/12/03 10:58:22;;;;;;;42.92;16.60;;;2.50;99.90;;;;;;5050794;28;20041;-66
2022/12/03 11:00:49;;;;;;;44.53;18.10;;;2.50;99.90;;;;;;5050837;28;20037;-66
2022/12/03 11:03:27;;;;;;;42.97;16.50;;;2.50;99.90;;;;;;5050884;28;20036;-67
2022/12/03 11:05:55;;;;;;;48.63;18.33;;;2.40;99.90;;;;;;5048535;28;20045;-66
2022/12/03 11:08:24;;;;;;;47.00;17.73;;;2.50;99.90;;;;;;5050677;28;20080;-66
2022/12/03 11:11:12;;;;;;;41.00;17.35;;;2.50;99.90;;;;;;5050929;28;20146;-65
2022/12/03 11:13:37;;;;;;;47.08;17.83;;;2.50;99.90;;;;;;5049204;28;20092;-66
2022/12/03 11:16:05;;;;;;;48.35;17.98;;;2.60;99.90;;;;;;5049890;28;20493;-66
2022/12/03 11:18:53;;;;;;;46.53;18.02;;;2.70;99.90;;;;;;5050582;28;20107;-67
2022/12/03 11:21:19;;;;;;;51.67;18.63;;;2.60;99.90;;;;;;5050360;28;20037;-67
2022/12/03 11:23:44;;;;;;;49.90;18.55;;;2.60;99.90;;;;;;5049551;28;20056;-67
2022/12/03 11:26:17;;;;;;;53.38;17.70;;;2.60;99.90;;;;;;5050370;28;20765;-66
2022/12/03 11:28:45;;;;;;;49.70;19.20;;;2.70;99.90;;;;;;5050612;28;20059;-66
2022/12/03 11:31:37;;;;;;;46.10;17.70;;;2.70;99.90;;;;;;5050566;28;20148;-66
2022/12/03 11:34:17;;;;;;;46.13;17.90;;;2.70;99.90;;;;;;5055957;28;20062;-68
2022/12/03 11:37:08;;;;;;;47.25;17.73;;;2.90;99.90;;;;;;5070339;28;20036;-69
2022/12/03 11:39:48;;;;;;;45.40;16.90;;;2.90;99.90;;;;;;5070280;28;20036;-68
2022/12/03 11:42:26;;;;;;;52.38;17.83;;;3.00;99.90;;;;;;5070441;28;20040;-67
2022/12/03 11:45:03;;;;;;;47.50;18.08;;;3.00;99.90;;;;;;5069498;28;20080;-68
2022/12/03 11:47:40;;;;;;;51.58;17.92;;;3.10;99.90;;;;;;5062727;28;20374;-67
2022/12/03 11:50:22;;;;;;;45.72;17.90;;;2.90;99.90;;;;;;5059460;28;20040;-67
2022/12/03 11:52:53;;;;;;;42.53;17.38;;;2.90;99.90;;;;;;5062843;28;20095;-68
2022/12/03 11:55:27;;;;;;;48.28;17.98;;;3.00;99.90;;;;;;5061408;28;20049;-67
2022/12/03 11:58:00;;;;;;;44.45;17.70;;;2.80;99.90;;;;;;5063224;28;20041;-67
2022/12/03 12:00:27;;;;;;;47.17;17.67;;;2.80;99.90;;;;;;5062732;28;20047;-67
2022/12/03 12:02:54;;;;;;;45.47;17.20;;;2.70;99.90;;;;;;5061125;28;20082;-67
2022/12/03 12:05:29;;;;;;;43.17;17.52;;;2.60;99.90;;;;;;5063446;28;20059;-67
2022/12/03 12:07:55;;;;;;;49.13;18.45;;;2.70;99.90;;;;;;5063674;28;20052;-67
2022/12/03 12:10:43;;;;;;;44.50;18.08;;;2.70;99.90;;;;;;5061672;28;20045;-67
2022/12/03 12:13:48;;;;;;;42.67;17.60;;;2.70;99.90;;;;;;5061141;28;20037;-67
2022/12/03 12:16:42;;;;;;;47.30;16.85;;;2.70;99.90;;;;;;5053255;28;20416;-66
2022/12/03 12:19:33;;;;;;;40.47;16.85;;;2.70;99.90;;;;;;5056805;28;20076;-68
2022/12/03 12:22:23;;;;;;;44.17;16.13;;;2.70;99.90;;;;;;5057167;28;20090;-67
2022/12/03 12:24:53;;;;;;;38.67;16.10;;;2.70;99.90;;;;;;5052602;28;20045;-68
2022/12/03 12:27:28;;;;;;;43.05;17.00;;;2.70;99.90;;;;;;5053066;28;20048;-68
2022/12/03 12:29:56;;;;;;;41.75;16.25;;;2.70;99.90;;;;;;5051420;28;20051;-68
2022/12/03 12:32:26;;;;;;;44.53;16.77;;;2.70;99.90;;;;;;5053234;28;20056;-68
2022/12/03 12:34:58;;;;;;;47.05;17.80;;;2.70;99.90;;;;;;5052235;28;20063;-67
2022/12/03 12:37:45;;;;;;;46.80;16.85;;;2.70;99.90;;;;;;5052851;28;20041;-67
2022/12/03 12:40:14;;;;;;;41.15;16.77;;;2.70;99.90;;;;;;5052672;28;20116;-67
2022/12/03 12:42:49;;;;;;;42.00;16.02;;;2.60;99.90;;;;;;5052627;28;20040;-67
2022/12/03 12:45:16;;;;;;;52.13;18.45;;;2.70;99.90;;;;;;5051956;28;20658;-67
2022/12/03 12:48:09;;;;;;;40.65;15.35;;;2.70;99.90;;;;;;5061235;28;20040;-67
2022/12/03 12:50:43;;;;;;;48.78;19.25;;;2.80;99.90;;;;;;5072924;28;20466;-67
2022/12/03 12:53:23;;;;;;;39.55;15.95;;;2.70;99.90;;;;;;5072851;28;20059;-67
2022/12/03 12:55:54;;;;;;;47.33;17.98;;;2.70;99.90;;;;;;5071588;28;20036;-67
2022/12/03 12:58:21;;;;;;;47.88;17.98;;;2.60;99.90;;;;;;5072387;28;20079;-67
2022/12/03 13:00:58;;;;;;;46.58;18.35;;;2.70;99.90;;;;;;5072629;28;20408;-67